Myojin Maru No.25 — JL6201 — position and weather

sailwx.info

Track history (hours):
 
Tides and Currents Weather Stations Pressure Air Temp Water Temp Dewpoint Dewpoint Depression Visibility Wind Speed Wind Dir Waves Ship Positions

Myojin Maru No.25

Last reported at 2016-May-02 20:33 UTC. Time now 2016-Jul-28 10:34 UTC.
Position N 34°35' E 134°52'.
Warning: this ship's position is months out of date.

Length 88 m; draft 4.7 m.

Type: Tanker. MMSI: 431500272.

Date/timePositionNaut miles runAvg speedWind from/ knotsBaromVisibWave heightAir tempDewpointWater temp
2016-May-02 20:33N 34°35' E 134°52'1111.1
2016-May-02 19:34N 34°32' E 135°04'1514.6
2016-May-02 18:32N 34°18' E 134°60'1414.3
2016-May-02 17:33N 34°04' E 134°60'4 0.1
2016-Apr-30 15:17N 34°08' E 134°59'1012.3
2016-Apr-30 14:28N 34°18' E 134°59'1112.3
2016-Apr-30 13:33N 34°29' E 135°03'240 8.0
2016-Apr-29 07:30N 33°52' E 130°16'1212.5
2016-Apr-29 06:32N 33°45' E 130°04'  
2016-Apr-24 22:07N 34°42' E 134°45'812.2
2016-Apr-24 21:30N 34°37' E 134°53'1010.8
2016-Apr-24 20:33N 34°35' E 135°05'1211.9
2016-Apr-24 19:33N 34°24' E 135°02'1111.5
2016-Apr-24 18:33N 34°12' E 134°59'1312.5
2016-Apr-24 17:32N 33°60' E 135°00'  
Track history (hours):
 
Tides and Currents Weather Stations Pressure Air Temp Water Temp Dewpoint Dewpoint Depression Visibility Wind Speed Wind Dir Waves Ship Positions

Myojin Maru No.25

Last reported at 2016-May-02 20:33 UTC. Time now 2016-Jul-28 10:34 UTC.
Position N 34°35' E 134°52'.
Warning: this ship's position is months out of date.

Length 88 m; draft 4.7 m.

Type: Tanker. MMSI: 431500272.

Date/timePositionNaut miles runAvg speedWind from/ knotsBaromVisibWave heightAir tempDewpointWater temp
2016-May-02 20:33N 34°35' E 134°52'1111.1
2016-May-02 19:34N 34°32' E 135°04'1514.6
2016-May-02 18:32N 34°18' E 134°60'1414.3
2016-May-02 17:33N 34°04' E 134°60'4 0.1
2016-Apr-30 15:17N 34°08' E 134°59'1012.3
2016-Apr-30 14:28N 34°18' E 134°59'1112.3
2016-Apr-30 13:33N 34°29' E 135°03'240 8.0
2016-Apr-29 07:30N 33°52' E 130°16'1212.5
2016-Apr-29 06:32N 33°45' E 130°04'  
2016-Apr-24 22:07N 34°42' E 134°45'812.2
2016-Apr-24 21:30N 34°37' E 134°53'1010.8
2016-Apr-24 20:33N 34°35' E 135°05'1211.9
2016-Apr-24 19:33N 34°24' E 135°02'1111.5
2016-Apr-24 18:33N 34°12' E 134°59'1312.5
2016-Apr-24 17:32N 33°60' E 135°00'  

Dump ship's entire track history